sensor_id;sensor_type;location;lat;lon;timestamp;P1;durP1;ratioP1;P2;durP2;ratioP2
15921;SDS011;8060;50.948;3.146;2024-01-27T00:01:52;17.73;;;7.33;;
15921;SDS011;8060;50.948;3.146;2024-01-27T00:04:20;19.23;;;8.37;;
15921;SDS011;8060;50.948;3.146;2024-01-27T00:06:48;20.80;;;8.47;;
15921;SDS011;8060;50.948;3.146;2024-01-27T00:09:16;20.17;;;9.27;;
15921;SDS011;8060;50.948;3.146;2024-01-27T00:11:44;21.93;;;8.73;;
15921;SDS011;8060;50.948;3.146;2024-01-27T00:14:13;18.97;;;8.60;;
15921;SDS011;8060;50.948;3.146;2024-01-27T00:16:41;18.40;;;9.00;;
15921;SDS011;8060;50.948;3.146;2024-01-27T00:19:10;16.07;;;8.23;;
15921;SDS011;8060;50.948;3.146;2024-01-27T00:21:39;24.93;;;8.97;;
15921;SDS011;8060;50.948;3.146;2024-01-27T00:24:07;16.50;;;7.83;;
15921;SDS011;8060;50.948;3.146;2024-01-27T00:26:35;20.13;;;7.63;;
15921;SDS011;8060;50.948;3.146;2024-01-27T00:29:03;18.60;;;8.53;;
15921;SDS011;8060;50.948;3.146;2024-01-27T00:31:31;17.97;;;8.30;;
15921;SDS011;8060;50.948;3.146;2024-01-27T00:33:59;27.77;;;8.63;;
15921;SDS011;8060;50.948;3.146;2024-01-27T00:36:29;21.07;;;9.30;;
15921;SDS011;8060;50.948;3.146;2024-01-27T00:38:57;20.27;;;8.33;;
15921;SDS011;8060;50.948;3.146;2024-01-27T00:41:25;23.03;;;8.73;;
15921;SDS011;8060;50.948;3.146;2024-01-27T00:43:53;20.07;;;7.97;;
15921;SDS011;8060;50.948;3.146;2024-01-27T00:46:21;21.73;;;8.53;;
15921;SDS011;8060;50.948;3.146;2024-01-27T00:48:49;16.63;;;7.73;;
15921;SDS011;8060;50.948;3.146;2024-01-27T00:51:17;17.37;;;7.93;;
15921;SDS011;8060;50.948;3.146;2024-01-27T00:53:47;23.70;;;7.83;;
15921;SDS011;8060;50.948;3.146;2024-01-27T00:56:15;19.67;;;7.40;;
15921;SDS011;8060;50.948;3.146;2024-01-27T00:58:43;19.47;;;8.27;;
15921;SDS011;8060;50.948;3.146;2024-01-27T01:01:11;19.27;;;8.60;;
15921;SDS011;8060;50.948;3.146;2024-01-27T01:03:40;24.27;;;9.00;;
15921;SDS011;8060;50.948;3.146;2024-01-27T01:06:08;18.77;;;8.40;;
15921;SDS011;8060;50.948;3.146;2024-01-27T01:08:37;21.80;;;9.53;;
15921;SDS011;8060;50.948;3.146;2024-01-27T01:11:06;20.77;;;8.83;;
15921;SDS011;8060;50.948;3.146;2024-01-27T01:13:34;18.70;;;9.27;;
15921;SDS011;8060;50.948;3.146;2024-01-27T01:16:02;21.73;;;9.07;;
15921;SDS011;8060;50.948;3.146;2024-01-27T01:18:31;26.57;;;11.33;;
15921;SDS011;8060;50.948;3.146;2024-01-27T01:20:59;23.83;;;10.70;;
15921;SDS011;8060;50.948;3.146;2024-01-27T01:23:27;22.93;;;10.63;;
15921;SDS011;8060;50.948;3.146;2024-01-27T01:25:55;22.80;;;9.73;;
15921;SDS011;8060;50.948;3.146;2024-01-27T01:28:25;21.37;;;10.00;;
15921;SDS011;8060;50.948;3.146;2024-01-27T01:30:54;22.60;;;10.30;;
15921;SDS011;8060;50.948;3.146;2024-01-27T01:33:22;27.43;;;9.63;;
15921;SDS011;8060;50.948;3.146;2024-01-27T01:35:51;25.93;;;9.87;;
15921;SDS011;8060;50.948;3.146;2024-01-27T01:38:19;24.53;;;9.10;;
15921;SDS011;8060;50.948;3.146;2024-01-27T01:40:47;25.40;;;10.80;;
15921;SDS011;8060;50.948;3.146;2024-01-27T01:43:15;23.80;;;10.47;;
15921;SDS011;8060;50.948;3.146;2024-01-27T01:45:45;24.37;;;11.00;;
15921;SDS011;8060;50.948;3.146;2024-01-27T01:48:13;25.67;;;10.60;;
15921;SDS011;8060;50.948;3.146;2024-01-27T01:50:42;31.07;;;10.90;;
15921;SDS011;8060;50.948;3.146;2024-01-27T01:53:10;28.17;;;10.33;;
15921;SDS011;8060;50.948;3.146;2024-01-27T01:55:39;21.23;;;10.47;;
15921;SDS011;8060;50.948;3.146;2024-01-27T01:58:07;28.93;;;10.17;;
15921;SDS011;8060;50.948;3.146;2024-01-27T02:00:36;24.50;;;9.80;;
15921;SDS011;8060;50.948;3.146;2024-01-27T02:03:09;23.87;;;9.77;;
15921;SDS011;8060;50.948;3.146;2024-01-27T02:05:38;24.57;;;9.97;;
15921;SDS011;8060;50.948;3.146;2024-01-27T02:08:06;26.37;;;10.43;;
15921;SDS011;8060;50.948;3.146;2024-01-27T02:10:35;23.83;;;10.00;;
15921;SDS011;8060;50.948;3.146;2024-01-27T02:13:14;29.53;;;11.30;;
15921;SDS011;8060;50.948;3.146;2024-01-27T02:15:44;22.63;;;10.33;;
15921;SDS011;8060;50.948;3.146;2024-01-27T02:18:14;26.27;;;10.87;;
15921;SDS011;8060;50.948;3.146;2024-01-27T02:20:43;24.93;;;10.50;;
15921;SDS011;8060;50.948;3.146;2024-01-27T02:23:11;25.93;;;10.47;;
15921;SDS011;8060;50.948;3.146;2024-01-27T02:25:41;30.03;;;11.00;;
15921;SDS011;8060;50.948;3.146;2024-01-27T02:28:09;30.83;;;10.90;;
15921;SDS011;8060;50.948;3.146;2024-01-27T02:30:39;27.37;;;11.10;;
15921;SDS011;8060;50.948;3.146;2024-01-27T02:33:07;23.60;;;10.43;;
15921;SDS011;8060;50.948;3.146;2024-01-27T02:35:35;21.70;;;10.63;;
15921;SDS011;8060;50.948;3.146;2024-01-27T02:38:03;23.17;;;10.20;;
15921;SDS011;8060;50.948;3.146;2024-01-27T02:40:31;21.53;;;10.37;;
15921;SDS011;8060;50.948;3.146;2024-01-27T02:43:01;26.07;;;10.10;;
15921;SDS011;8060;50.948;3.146;2024-01-27T02:45:29;25.80;;;10.47;;
15921;SDS011;8060;50.948;3.146;2024-01-27T02:47:57;26.50;;;10.30;;
15921;SDS011;8060;50.948;3.146;2024-01-27T02:50:25;25.10;;;10.87;;
15921;SDS011;8060;50.948;3.146;2024-01-27T02:52:54;22.87;;;10.23;;
15921;SDS011;8060;50.948;3.146;2024-01-27T02:55:22;24.83;;;9.83;;
15921;SDS011;8060;50.948;3.146;2024-01-27T02:57:50;22.33;;;9.80;;
15921;SDS011;8060;50.948;3.146;2024-01-27T03:00:19;24.30;;;10.40;;
15921;SDS011;8060;50.948;3.146;2024-01-27T03:02:48;26.53;;;10.27;;
15921;SDS011;8060;50.948;3.146;2024-01-27T03:05:16;24.13;;;10.60;;
15921;SDS011;8060;50.948;3.146;2024-01-27T03:07:44;23.67;;;9.90;;
15921;SDS011;8060;50.948;3.146;2024-01-27T03:10:12;19.10;;;9.07;;
15921;SDS011;8060;50.948;3.146;2024-01-27T03:12:40;23.10;;;9.70;;
15921;SDS011;8060;50.948;3.146;2024-01-27T03:15:08;24.63;;;9.23;;
15921;SDS011;8060;50.948;3.146;2024-01-27T03:17:38;28.27;;;9.80;;
15921;SDS011;8060;50.948;3.146;2024-01-27T03:20:07;25.13;;;9.17;;
15921;SDS011;8060;50.948;3.146;2024-01-27T03:22:37;24.10;;;10.20;;
15921;SDS011;8060;50.948;3.146;2024-01-27T03:25:07;20.47;;;9.10;;
15921;SDS011;8060;50.948;3.146;2024-01-27T03:27:36;22.93;;;9.67;;
15921;SDS011;8060;50.948;3.146;2024-01-27T03:30:05;26.53;;;10.30;;
15921;SDS011;8060;50.948;3.146;2024-01-27T03:32:34;21.00;;;10.40;;
15921;SDS011;8060;50.948;3.146;2024-01-27T03:35:04;24.77;;;10.97;;
15921;SDS011;8060;50.948;3.146;2024-01-27T03:37:33;20.57;;;9.20;;
15921;SDS011;8060;50.948;3.146;2024-01-27T03:40:01;21.40;;;9.80;;
15921;SDS011;8060;50.948;3.146;2024-01-27T03:42:30;26.07;;;10.57;;
15921;SDS011;8060;50.948;3.146;2024-01-27T03:44:58;22.40;;;10.97;;
15921;SDS011;8060;50.948;3.146;2024-01-27T03:47:26;31.80;;;11.03;;
15921;SDS011;8060;50.948;3.146;2024-01-27T03:49:54;24.53;;;10.10;;
15921;SDS011;8060;50.948;3.146;2024-01-27T03:52:23;21.53;;;10.57;;
15921;SDS011;8060;50.948;3.146;2024-01-27T03:54:51;29.63;;;10.47;;
15921;SDS011;8060;50.948;3.146;2024-01-27T03:57:20;27.43;;;10.73;;
15921;SDS011;8060;50.948;3.146;2024-01-27T03:59:48;26.17;;;10.23;;
15921;SDS011;8060;50.948;3.146;2024-01-27T04:02:16;27.07;;;10.73;;
15921;SDS011;8060;50.948;3.146;2024-01-27T04:04:44;21.47;;;10.20;;
15921;SDS011;8060;50.948;3.146;2024-01-27T04:07:12;27.50;;;10.67;;
15921;SDS011;8060;50.948;3.146;2024-01-27T04:09:42;23.00;;;11.07;;
15921;SDS011;8060;50.948;3.146;2024-01-27T04:12:10;22.33;;;9.87;;
15921;SDS011;8060;50.948;3.146;2024-01-27T04:14:38;23.77;;;9.57;;
15921;SDS011;8060;50.948;3.146;2024-01-27T04:17:07;28.70;;;10.17;;
15921;SDS011;8060;50.948;3.146;2024-01-27T04:19:35;24.40;;;10.53;;
15921;SDS011;8060;50.948;3.146;2024-01-27T04:22:03;33.97;;;11.47;;
15921;SDS011;8060;50.948;3.146;2024-01-27T04:24:31;18.77;;;9.83;;
15921;SDS011;8060;50.948;3.146;2024-01-27T04:27:01;28.17;;;10.37;;
15921;SDS011;8060;50.948;3.146;2024-01-27T04:29:29;25.27;;;10.07;;
15921;SDS011;8060;50.948;3.146;2024-01-27T04:31:56;74.17;;;26.73;;
15921;SDS011;8060;50.948;3.146;2024-01-27T04:34:24;63.03;;;23.57;;
15921;SDS011;8060;50.948;3.146;2024-01-27T04:36:53;50.67;;;20.87;;
15921;SDS011;8060;50.948;3.146;2024-01-27T04:39:21;45.83;;;19.63;;
15921;SDS011;8060;50.948;3.146;2024-01-27T04:41:49;46.27;;;19.93;;
15921;SDS011;8060;50.948;3.146;2024-01-27T04:44:18;28.27;;;15.17;;
15921;SDS011;8060;50.948;3.146;2024-01-27T04:46:47;26.60;;;11.83;;
15921;SDS011;8060;50.948;3.146;2024-01-27T04:49:15;28.97;;;11.70;;
15921;SDS011;8060;50.948;3.146;2024-01-27T04:51:44;32.30;;;13.80;;
15921;SDS011;8060;50.948;3.146;2024-01-27T04:54:12;32.00;;;13.30;;
15921;SDS011;8060;50.948;3.146;2024-01-27T04:56:40;24.80;;;12.67;;
15921;SDS011;8060;50.948;3.146;2024-01-27T04:59:08;26.30;;;12.07;;
15921;SDS011;8060;50.948;3.146;2024-01-27T05:01:38;30.43;;;12.43;;
15921;SDS011;8060;50.948;3.146;2024-01-27T05:04:06;30.83;;;12.37;;
15921;SDS011;8060;50.948;3.146;2024-01-27T05:06:34;37.60;;;13.97;;
15921;SDS011;8060;50.948;3.146;2024-01-27T05:09:02;31.33;;;14.17;;
15921;SDS011;8060;50.948;3.146;2024-01-27T05:11:32;28.60;;;12.97;;
15921;SDS011;8060;50.948;3.146;2024-01-27T05:14:00;30.50;;;13.37;;
15921;SDS011;8060;50.948;3.146;2024-01-27T05:16:28;26.47;;;13.40;;
15921;SDS011;8060;50.948;3.146;2024-01-27T05:18:59;31.53;;;14.33;;
15921;SDS011;8060;50.948;3.146;2024-01-27T05:21:28;32.73;;;14.20;;
15921;SDS011;8060;50.948;3.146;2024-01-27T05:23:56;36.20;;;14.70;;
15921;SDS011;8060;50.948;3.146;2024-01-27T05:26:24;35.73;;;15.57;;
15921;SDS011;8060;50.948;3.146;2024-01-27T05:28:52;40.87;;;15.27;;
15921;SDS011;8060;50.948;3.146;2024-01-27T05:31:20;36.23;;;15.00;;
15921;SDS011;8060;50.948;3.146;2024-01-27T05:33:49;33.50;;;14.40;;
15921;SDS011;8060;50.948;3.146;2024-01-27T05:36:18;30.17;;;14.13;;
15921;SDS011;8060;50.948;3.146;2024-01-27T05:38:46;32.87;;;14.10;;
15921;SDS011;8060;50.948;3.146;2024-01-27T05:41:15;33.27;;;14.33;;
15921;SDS011;8060;50.948;3.146;2024-01-27T05:43:43;38.67;;;17.50;;
15921;SDS011;8060;50.948;3.146;2024-01-27T05:46:11;31.30;;;16.03;;
15921;SDS011;8060;50.948;3.146;2024-01-27T05:48:39;34.93;;;15.40;;
15921;SDS011;8060;50.948;3.146;2024-01-27T05:51:07;81.67;;;38.07;;
15921;SDS011;8060;50.948;3.146;2024-01-27T05:53:37;52.57;;;24.90;;
15921;SDS011;8060;50.948;3.146;2024-01-27T05:56:05;50.30;;;23.20;;
15921;SDS011;8060;50.948;3.146;2024-01-27T05:58:33;51.77;;;22.43;;
15921;SDS011;8060;50.948;3.146;2024-01-27T06:01:01;41.87;;;18.40;;
15921;SDS011;8060;50.948;3.146;2024-01-27T06:03:29;35.00;;;18.27;;
15921;SDS011;8060;50.948;3.146;2024-01-27T06:05:58;35.80;;;17.00;;
15921;SDS011;8060;50.948;3.146;2024-01-27T06:08:26;40.40;;;17.53;;
15921;SDS011;8060;50.948;3.146;2024-01-27T06:10:55;37.20;;;18.10;;
15921;SDS011;8060;50.948;3.146;2024-01-27T06:13:23;38.87;;;17.27;;
15921;SDS011;8060;50.948;3.146;2024-01-27T06:15:52;38.37;;;15.60;;
15921;SDS011;8060;50.948;3.146;2024-01-27T06:18:20;34.87;;;15.17;;
15921;SDS011;8060;50.948;3.146;2024-01-27T06:20:49;40.20;;;15.43;;
15921;SDS011;8060;50.948;3.146;2024-01-27T06:23:17;87.67;;;36.33;;
15921;SDS011;8060;50.948;3.146;2024-01-27T06:25:46;179.00;;;57.03;;
15921;SDS011;8060;50.948;3.146;2024-01-27T06:28:15;74.17;;;30.70;;
15921;SDS011;8060;50.948;3.146;2024-01-27T06:30:44;45.80;;;23.60;;
15921;SDS011;8060;50.948;3.146;2024-01-27T06:33:12;43.17;;;19.73;;
15921;SDS011;8060;50.948;3.146;2024-01-27T06:35:40;47.57;;;20.53;;
15921;SDS011;8060;50.948;3.146;2024-01-27T06:38:08;60.63;;;33.10;;
15921;SDS011;8060;50.948;3.146;2024-01-27T06:40:36;46.83;;;22.17;;
15921;SDS011;8060;50.948;3.146;2024-01-27T06:43:05;37.10;;;18.87;;
15921;SDS011;8060;50.948;3.146;2024-01-27T06:45:34;38.53;;;14.97;;
15921;SDS011;8060;50.948;3.146;2024-01-27T06:48:03;38.27;;;15.20;;
15921;SDS011;8060;50.948;3.146;2024-01-27T06:50:31;36.60;;;15.73;;
15921;SDS011;8060;50.948;3.146;2024-01-27T06:53:00;38.47;;;15.20;;
15921;SDS011;8060;50.948;3.146;2024-01-27T06:55:29;36.57;;;16.37;;
15921;SDS011;8060;50.948;3.146;2024-01-27T06:57:57;35.63;;;16.30;;
15921;SDS011;8060;50.948;3.146;2024-01-27T07:00:25;35.27;;;16.53;;
15921;SDS011;8060;50.948;3.146;2024-01-27T07:02:57;31.30;;;14.30;;
15921;SDS011;8060;50.948;3.146;2024-01-27T07:05:25;26.67;;;14.93;;
15921;SDS011;8060;50.948;3.146;2024-01-27T07:07:53;28.67;;;13.60;;
15921;SDS011;8060;50.948;3.146;2024-01-27T07:10:21;30.43;;;13.37;;
15921;SDS011;8060;50.948;3.146;2024-01-27T07:12:49;33.70;;;15.10;;
15921;SDS011;8060;50.948;3.146;2024-01-27T07:15:18;33.63;;;15.50;;
15921;SDS011;8060;50.948;3.146;2024-01-27T07:17:48;38.03;;;16.20;;
15921;SDS011;8060;50.948;3.146;2024-01-27T07:20:17;32.63;;;15.43;;
15921;SDS011;8060;50.948;3.146;2024-01-27T07:22:47;33.57;;;13.83;;
15921;SDS011;8060;50.948;3.146;2024-01-27T07:25:15;30.83;;;13.67;;
15921;SDS011;8060;50.948;3.146;2024-01-27T07:27:43;30.30;;;13.00;;
15921;SDS011;8060;50.948;3.146;2024-01-27T07:30:12;36.00;;;13.37;;
15921;SDS011;8060;50.948;3.146;2024-01-27T07:32:42;26.20;;;12.47;;
15921;SDS011;8060;50.948;3.146;2024-01-27T07:35:11;29.37;;;13.37;;
15921;SDS011;8060;50.948;3.146;2024-01-27T07:37:40;30.67;;;12.57;;
15921;SDS011;8060;50.948;3.146;2024-01-27T07:40:09;34.53;;;12.53;;
15921;SDS011;8060;50.948;3.146;2024-01-27T07:42:38;23.73;;;12.00;;
15921;SDS011;8060;50.948;3.146;2024-01-27T07:45:07;36.77;;;13.90;;
15921;SDS011;8060;50.948;3.146;2024-01-27T07:47:36;29.97;;;13.53;;
15921;SDS011;8060;50.948;3.146;2024-01-27T07:50:05;31.83;;;14.03;;
15921;SDS011;8060;50.948;3.146;2024-01-27T07:52:33;41.00;;;15.53;;
15921;SDS011;8060;50.948;3.146;2024-01-27T07:55:03;36.97;;;15.93;;
15921;SDS011;8060;50.948;3.146;2024-01-27T07:57:32;38.53;;;15.50;;
15921;SDS011;8060;50.948;3.146;2024-01-27T08:00:00;39.27;;;17.50;;
15921;SDS011;8060;50.948;3.146;2024-01-27T08:02:30;61.43;;;28.20;;
15921;SDS011;8060;50.948;3.146;2024-01-27T08:04:58;45.40;;;20.20;;
15921;SDS011;8060;50.948;3.146;2024-01-27T08:07:26;34.87;;;16.30;;
15921;SDS011;8060;50.948;3.146;2024-01-27T08:09:54;50.90;;;28.23;;
15921;SDS011;8060;50.948;3.146;2024-01-27T08:12:24;36.07;;;17.83;;
15921;SDS011;8060;50.948;3.146;2024-01-27T08:14:53;36.33;;;15.70;;
15921;SDS011;8060;50.948;3.146;2024-01-27T08:17:21;32.57;;;15.03;;
15921;SDS011;8060;50.948;3.146;2024-01-27T08:19:49;28.30;;;13.23;;
15921;SDS011;8060;50.948;3.146;2024-01-27T08:22:18;36.83;;;14.90;;
15921;SDS011;8060;50.948;3.146;2024-01-27T08:24:46;29.23;;;14.63;;
15921;SDS011;8060;50.948;3.146;2024-01-27T08:27:14;30.07;;;14.00;;
15921;SDS011;8060;50.948;3.146;2024-01-27T08:29:43;35.07;;;13.80;;
15921;SDS011;8060;50.948;3.146;2024-01-27T08:32:11;31.13;;;13.97;;
15921;SDS011;8060;50.948;3.146;2024-01-27T08:34:40;24.33;;;12.70;;
15921;SDS011;8060;50.948;3.146;2024-01-27T08:37:14;41.97;;;14.10;;
15921;SDS011;8060;50.948;3.146;2024-01-27T08:39:43;36.40;;;14.70;;
15921;SDS011;8060;50.948;3.146;2024-01-27T08:42:11;34.17;;;13.80;;
15921;SDS011;8060;50.948;3.146;2024-01-27T08:44:40;28.27;;;13.10;;
15921;SDS011;8060;50.948;3.146;2024-01-27T08:47:09;33.43;;;13.57;;
15921;SDS011;8060;50.948;3.146;2024-01-27T08:49:37;29.13;;;12.33;;
15921;SDS011;8060;50.948;3.146;2024-01-27T08:52:06;33.80;;;13.37;;
15921;SDS011;8060;50.948;3.146;2024-01-27T08:54:34;29.20;;;13.13;;
15921;SDS011;8060;50.948;3.146;2024-01-27T08:57:03;38.53;;;14.27;;
15921;SDS011;8060;50.948;3.146;2024-01-27T08:59:31;34.07;;;14.60;;
15921;SDS011;8060;50.948;3.146;2024-01-27T09:02:00;27.03;;;14.57;;
15921;SDS011;8060;50.948;3.146;2024-01-27T09:04:30;31.93;;;14.03;;
15921;SDS011;8060;50.948;3.146;2024-01-27T09:06:58;33.20;;;14.57;;
15921;SDS011;8060;50.948;3.146;2024-01-27T09:09:26;34.80;;;14.70;;
15921;SDS011;8060;50.948;3.146;2024-01-27T09:11:55;31.80;;;14.40;;
15921;SDS011;8060;50.948;3.146;2024-01-27T09:14:23;31.33;;;15.23;;
15921;SDS011;8060;50.948;3.146;2024-01-27T09:16:51;31.03;;;16.43;;
15921;SDS011;8060;50.948;3.146;2024-01-27T09:19:19;37.80;;;15.63;;
15921;SDS011;8060;50.948;3.146;2024-01-27T09:21:50;32.93;;;15.93;;
15921;SDS011;8060;50.948;3.146;2024-01-27T09:24:19;35.23;;;15.67;;
15921;SDS011;8060;50.948;3.146;2024-01-27T09:26:47;41.13;;;17.27;;
15921;SDS011;8060;50.948;3.146;2024-01-27T09:29:15;33.80;;;16.93;;
15921;SDS011;8060;50.948;3.146;2024-01-27T09:31:44;37.77;;;16.77;;
15921;SDS011;8060;50.948;3.146;2024-01-27T09:34:12;32.63;;;15.87;;
15921;SDS011;8060;50.948;3.146;2024-01-27T09:36:40;28.67;;;13.23;;
15921;SDS011;8060;50.948;3.146;2024-01-27T09:39:09;27.00;;;13.90;;
15921;SDS011;8060;50.948;3.146;2024-01-27T09:41:38;36.07;;;14.37;;
15921;SDS011;8060;50.948;3.146;2024-01-27T09:44:06;24.23;;;12.30;;
15921;SDS011;8060;50.948;3.146;2024-01-27T09:46:34;24.50;;;11.77;;
15921;SDS011;8060;50.948;3.146;2024-01-27T09:49:02;30.67;;;12.97;;
15921;SDS011;8060;50.948;3.146;2024-01-27T09:51:31;28.97;;;12.00;;
15921;SDS011;8060;50.948;3.146;2024-01-27T09:54:00;28.90;;;11.47;;
15921;SDS011;8060;50.948;3.146;2024-01-27T09:56:30;28.90;;;10.53;;
15921;SDS011;8060;50.948;3.146;2024-01-27T09:58:59;30.50;;;11.03;;
15921;SDS011;8060;50.948;3.146;2024-01-27T10:01:27;33.47;;;10.27;;
15921;SDS011;8060;50.948;3.146;2024-01-27T10:03:56;23.90;;;9.77;;
15921;SDS011;8060;50.948;3.146;2024-01-27T10:06:25;22.33;;;9.30;;
15921;SDS011;8060;50.948;3.146;2024-01-27T10:08:54;23.83;;;9.50;;
15921;SDS011;8060;50.948;3.146;2024-01-27T10:11:23;26.33;;;10.17;;
15921;SDS011;8060;50.948;3.146;2024-01-27T10:13:57;25.37;;;9.30;;
15921;SDS011;8060;50.948;3.146;2024-01-27T10:16:26;22.77;;;9.63;;
15921;SDS011;8060;50.948;3.146;2024-01-27T10:19:01;25.37;;;9.07;;
15921;SDS011;8060;50.948;3.146;2024-01-27T10:21:30;28.97;;;9.10;;
15921;SDS011;8060;50.948;3.146;2024-01-27T10:23:59;24.20;;;9.67;;
15921;SDS011;8060;50.948;3.146;2024-01-27T10:26:30;26.17;;;9.90;;
15921;SDS011;8060;50.948;3.146;2024-01-27T10:29:01;25.30;;;8.90;;
15921;SDS011;8060;50.948;3.146;2024-01-27T10:31:29;26.77;;;8.87;;
15921;SDS011;8060;50.948;3.146;2024-01-27T10:33:58;27.50;;;9.30;;
15921;SDS011;8060;50.948;3.146;2024-01-27T10:36:38;26.33;;;8.47;;
15921;SDS011;8060;50.948;3.146;2024-01-27T10:39:14;23.03;;;8.10;;
15921;SDS011;8060;50.948;3.146;2024-01-27T10:41:47;26.27;;;9.60;;
15921;SDS011;8060;50.948;3.146;2024-01-27T10:44:18;21.13;;;8.83;;
15921;SDS011;8060;50.948;3.146;2024-01-27T10:46:47;25.03;;;9.30;;
15921;SDS011;8060;50.948;3.146;2024-01-27T10:49:16;28.43;;;8.87;;
15921;SDS011;8060;50.948;3.146;2024-01-27T10:51:46;22.93;;;8.30;;
15921;SDS011;8060;50.948;3.146;2024-01-27T10:54:22;22.13;;;7.90;;
15921;SDS011;8060;50.948;3.146;2024-01-27T10:56:53;25.13;;;8.17;;
15921;SDS011;8060;50.948;3.146;2024-01-27T10:59:25;26.77;;;7.83;;
15921;SDS011;8060;50.948;3.146;2024-01-27T11:01:54;23.67;;;7.73;;
15921;SDS011;8060;50.948;3.146;2024-01-27T11:04:24;27.03;;;7.47;;
15921;SDS011;8060;50.948;3.146;2024-01-27T11:06:53;27.30;;;7.80;;
15921;SDS011;8060;50.948;3.146;2024-01-27T11:09:23;24.90;;;7.20;;
15921;SDS011;8060;50.948;3.146;2024-01-27T11:11:52;26.30;;;7.87;;
15921;SDS011;8060;50.948;3.146;2024-01-27T11:14:20;25.70;;;7.40;;
15921;SDS011;8060;50.948;3.146;2024-01-27T11:16:55;24.93;;;7.53;;
15921;SDS011;8060;50.948;3.146;2024-01-27T11:19:23;23.20;;;6.80;;
15921;SDS011;8060;50.948;3.146;2024-01-27T11:21:59;24.70;;;7.57;;
15921;SDS011;8060;50.948;3.146;2024-01-27T11:24:28;19.50;;;6.67;;
15921;SDS011;8060;50.948;3.146;2024-01-27T11:27:00;25.40;;;6.77;;
15921;SDS011;8060;50.948;3.146;2024-01-27T11:29:29;25.60;;;6.50;;
15921;SDS011;8060;50.948;3.146;2024-01-27T11:32:01;24.70;;;5.50;;
15921;SDS011;8060;50.948;3.146;2024-01-27T11:34:40;23.40;;;6.37;;
15921;SDS011;8060;50.948;3.146;2024-01-27T11:37:12;19.37;;;5.70;;
15921;SDS011;8060;50.948;3.146;2024-01-27T11:39:41;17.87;;;5.43;;
15921;SDS011;8060;50.948;3.146;2024-01-27T11:42:10;18.07;;;5.97;;
15921;SDS011;8060;50.948;3.146;2024-01-27T11:44:41;19.60;;;5.20;;
15921;SDS011;8060;50.948;3.146;2024-01-27T11:47:15;21.07;;;5.23;;
15921;SDS011;8060;50.948;3.146;2024-01-27T11:49:48;23.07;;;5.93;;
15921;SDS011;8060;50.948;3.146;2024-01-27T11:52:19;14.23;;;4.27;;
15921;SDS011;8060;50.948;3.146;2024-01-27T11:54:53;18.17;;;5.67;;
15921;SDS011;8060;50.948;3.146;2024-01-27T11:57:22;17.93;;;5.03;;
15921;SDS011;8060;50.948;3.146;2024-01-27T11:59:50;14.13;;;4.70;;
15921;SDS011;8060;50.948;3.146;2024-01-27T12:02:20;15.77;;;4.97;;
15921;SDS011;8060;50.948;3.146;2024-01-27T12:04:48;22.47;;;4.97;;
15921;SDS011;8060;50.948;3.146;2024-01-27T12:07:17;16.70;;;4.97;;
15921;SDS011;8060;50.948;3.146;2024-01-27T12:09:48;16.13;;;5.07;;
15921;SDS011;8060;50.948;3.146;2024-01-27T12:12:16;19.20;;;4.70;;
15921;SDS011;8060;50.948;3.146;2024-01-27T12:14:45;15.63;;;5.07;;
15921;SDS011;8060;50.948;3.146;2024-01-27T12:17:15;22.17;;;5.43;;
15921;SDS011;8060;50.948;3.146;2024-01-27T12:19:49;16.93;;;4.40;;
15921;SDS011;8060;50.948;3.146;2024-01-27T12:22:22;18.37;;;4.27;;
15921;SDS011;8060;50.948;3.146;2024-01-27T12:24:52;17.20;;;4.93;;
15921;SDS011;8060;50.948;3.146;2024-01-27T12:27:21;20.60;;;4.80;;
15921;SDS011;8060;50.948;3.146;2024-01-27T12:29:50;19.73;;;5.10;;
15921;SDS011;8060;50.948;3.146;2024-01-27T12:32:18;17.50;;;4.63;;
15921;SDS011;8060;50.948;3.146;2024-01-27T12:34:46;18.60;;;6.07;;
15921;SDS011;8060;50.948;3.146;2024-01-27T12:37:17;18.27;;;4.27;;
15921;SDS011;8060;50.948;3.146;2024-01-27T12:39:48;17.50;;;4.90;;
15921;SDS011;8060;50.948;3.146;2024-01-27T12:42:17;20.40;;;5.10;;
15921;SDS011;8060;50.948;3.146;2024-01-27T12:44:45;18.57;;;4.93;;
15921;SDS011;8060;50.948;3.146;2024-01-27T12:47:13;22.43;;;5.73;;
15921;SDS011;8060;50.948;3.146;2024-01-27T12:49:41;21.47;;;5.47;;
15921;SDS011;8060;50.948;3.146;2024-01-27T12:52:10;23.43;;;4.83;;
15921;SDS011;8060;50.948;3.146;2024-01-27T12:54:40;22.17;;;4.73;;
15921;SDS011;8060;50.948;3.146;2024-01-27T12:57:08;17.97;;;5.37;;
15921;SDS011;8060;50.948;3.146;2024-01-27T12:59:36;16.07;;;4.77;;
15921;SDS011;8060;50.948;3.146;2024-01-27T13:02:05;16.33;;;5.00;;
15921;SDS011;8060;50.948;3.146;2024-01-27T13:04:33;19.60;;;5.67;;
15921;SDS011;8060;50.948;3.146;2024-01-27T13:07:01;14.70;;;5.03;;
15921;SDS011;8060;50.948;3.146;2024-01-27T13:09:29;17.20;;;5.30;;
15921;SDS011;8060;50.948;3.146;2024-01-27T13:11:59;13.50;;;4.50;;
15921;SDS011;8060;50.948;3.146;2024-01-27T13:14:27;21.73;;;4.80;;
15921;SDS011;8060;50.948;3.146;2024-01-27T13:16:55;18.30;;;4.63;;
15921;SDS011;8060;50.948;3.146;2024-01-27T13:19:26;21.43;;;5.20;;
15921;SDS011;8060;50.948;3.146;2024-01-27T13:21:54;22.50;;;5.73;;
15921;SDS011;8060;50.948;3.146;2024-01-27T13:24:22;14.10;;;4.93;;
15921;SDS011;8060;50.948;3.146;2024-01-27T13:26:51;20.83;;;4.57;;
15921;SDS011;8060;50.948;3.146;2024-01-27T13:29:20;16.27;;;4.40;;
15921;SDS011;8060;50.948;3.146;2024-01-27T13:31:49;23.07;;;5.00;;
15921;SDS011;8060;50.948;3.146;2024-01-27T13:34:17;23.97;;;5.40;;
15921;SDS011;8060;50.948;3.146;2024-01-27T13:36:46;16.43;;;4.67;;
15921;SDS011;8060;50.948;3.146;2024-01-27T13:39:14;19.40;;;5.13;;
15921;SDS011;8060;50.948;3.146;2024-01-27T13:41:42;22.00;;;4.77;;
15921;SDS011;8060;50.948;3.146;2024-01-27T13:44:10;18.90;;;4.40;;
15921;SDS011;8060;50.948;3.146;2024-01-27T13:46:39;19.93;;;5.03;;
15921;SDS011;8060;50.948;3.146;2024-01-27T13:49:08;15.50;;;4.70;;
15921;SDS011;8060;50.948;3.146;2024-01-27T13:51:36;19.87;;;4.57;;
15921;SDS011;8060;50.948;3.146;2024-01-27T13:54:05;19.60;;;5.43;;
15921;SDS011;8060;50.948;3.146;2024-01-27T13:56:35;20.17;;;4.67;;
15921;SDS011;8060;50.948;3.146;2024-01-27T13:59:04;16.47;;;4.27;;
15921;SDS011;8060;50.948;3.146;2024-01-27T14:01:32;16.93;;;5.10;;
15921;SDS011;8060;50.948;3.146;2024-01-27T14:04:02;20.53;;;4.90;;
15921;SDS011;8060;50.948;3.146;2024-01-27T14:06:31;14.97;;;5.47;;
15921;SDS011;8060;50.948;3.146;2024-01-27T14:09:00;15.77;;;4.13;;
15921;SDS011;8060;50.948;3.146;2024-01-27T14:11:29;17.60;;;4.03;;
15921;SDS011;8060;50.948;3.146;2024-01-27T14:13:57;15.57;;;3.80;;
15921;SDS011;8060;50.948;3.146;2024-01-27T14:16:25;19.80;;;4.13;;
15921;SDS011;8060;50.948;3.146;2024-01-27T14:18:54;14.47;;;4.13;;
15921;SDS011;8060;50.948;3.146;2024-01-27T14:21:24;18.40;;;3.60;;
15921;SDS011;8060;50.948;3.146;2024-01-27T14:23:53;12.47;;;3.23;;
15921;SDS011;8060;50.948;3.146;2024-01-27T14:26:27;15.13;;;3.70;;
15921;SDS011;8060;50.948;3.146;2024-01-27T14:28:55;15.67;;;4.10;;
15921;SDS011;8060;50.948;3.146;2024-01-27T14:31:23;10.20;;;3.57;;
15921;SDS011;8060;50.948;3.146;2024-01-27T14:33:51;16.37;;;3.97;;
15921;SDS011;8060;50.948;3.146;2024-01-27T14:36:20;20.67;;;4.27;;
15921;SDS011;8060;50.948;3.146;2024-01-27T14:38:51;12.57;;;3.50;;
15921;SDS011;8060;50.948;3.146;2024-01-27T14:41:20;18.13;;;3.83;;
15921;SDS011;8060;50.948;3.146;2024-01-27T14:43:50;22.87;;;4.20;;
15921;SDS011;8060;50.948;3.146;2024-01-27T14:46:18;20.87;;;4.00;;
15921;SDS011;8060;50.948;3.146;2024-01-27T14:48:46;14.57;;;3.47;;
15921;SDS011;8060;50.948;3.146;2024-01-27T14:51:14;22.57;;;3.70;;